Main page
METAR-TAF:

METAR-TAF

Airports :

Bata Airport

Bata, Equatorial Guinea

latitude: 1-54-15N, longitude: 9-48-15E, elevation: 4 m

Current weather observation

The report was made 6 hours and 30 minutes ago, at 04:00 UTC
Wind 5 kt from the South/Southeast
Temperature 24°C
Humidity 94%
Pressure 1014 hPa
Visibility 10 km or more
Few clouds at a height of 1000 ft

METAR: FGBT 160400Z 15005KT 9999 FEW010 24/23 Q1014

Time: 11:30 (10:30 UTC)

Forecast

The report was made 5 hours and 30 minutes ago, at 05:00 UTC
Forecast valid from 16 at 06 UTC to 17 at 06 UTC
Wind 8 kt from the South/Southwest
Visibility 10 km or more
Scattered clouds at a height of 1000 ft

TAF: FGBT 160500Z 1606/1706 21008KT 9999 SCT010

Weather observations and forecasts of more than 4000 airports (METAR and TAF reports).

The available stations are represented by yellow and red dots on the map.

Hover mouse over dot to see the name of the station.

Then click to see weather observations and forecasts.

To change the map : click on the green buttons with a black cross to zoom in, on the green button with a dash to zoom out, or on the green arrows for adjacent maps.


METAR-TAF: